KSGU/SGU METAR and TAF weather

Enter ICAO airport designator
Station Type Date Time Source
KSGU METAR 2022/01/18 06:56 UTC NOAA

KSGU 180656Z AUTO 18003KT 10SM CLR 03/M04 A3007 RMK AO2 SLP188 T00281044 401171017


Station Type Date Time Source
KSGU Decoded METAR 2022/01/18 06:56 UTC NOAA

St George, St George Municipal Airport, UT, United States (KSGU) 37-05N 113-36W
Jan 18, 2022 - 01:56 AM EST / 2022.01.18 0656 UTC
Wind: from the S (180 degrees) at 3 MPH (3 KT):0
Visibility: 10 mile(s):0
Sky conditions: clear
Temperature: 37.0 F (2.8 C)
Dew Point: 24.1 F (-4.4 C)
Relative Humidity: 59%
Pressure (altimeter): 30.07 in. Hg (1018 hPa)
ob: KSGU 180656Z AUTO 18003KT 10SM CLR 03/M04 A3007 RMK AO2 SLP188 T00281044 401171017
cycle: 7

Station Type Date Time Source
KSGU TAF 2022/01/18 06:42 UTC NOAA

TAF KSGU 180539Z 1806/1906 VRB04KT P6SM FEW090 BKN150

Example: see airport list